Time,TemperatureF,DewpointF,PressureIn,WindDirection,WindDirectionDegrees,WindSpeedMPH,WindSpeedGustMPH,Humidity,HourlyPrecipIn,Conditions,Clouds,dailyrainin,SolarRadiationWatts/m^2,SoftwareType,DateUTC
2013-02-28 00:00:00,25.6,23.9,29.68,ESE,107,6.0,6.0,93,0.00,-SN,FEW,0.00,0.0,WeatherDisplay:10.37,2013-02-28 05:00:00,
2013-02-28 00:02:00,25.6,23.9,29.68,SE,141,11.5,11.5,93,0.00,OVC,FEW,0.00,0.0,WeatherDisplay:10.37,2013-02-28 05:02:00,
2013-02-28 00:03:00,25.6,23.9,29.68,SE,141,11.5,11.5,93,0.00,OVC,FEW,0.00,0.0,WeatherDisplay:10.37,2013-02-28 05:03:00,
2013-02-28 00:08:00,25.6,23.6,29.68,West,269,11.5,11.5,92,0.00,OVC,FEW,0.00,0.0,WeatherDisplay:10.37,2013-02-28 05:08:00,
2013-02-28 00:13:00,25.6,23.9,29.68,ESE,111,6.0,6.0,93,0.00,OVC,FEW,0.00,0.0,WeatherDisplay:10.37,2013-02-28 05:13:00,
2013-02-28 00:18:00,25.6,23.6,29.69,SE,135,6.0,6.0,92,0.00,OVC,FEW,0.00,0.0,WeatherDisplay:10.37,2013-02-28 05:18:00,
2013-02-28 00:23:00,25.5,23.8,29.68,East,101,6.9,6.9,93,0.00,OVC,FEW,0.00,0.0,WeatherDisplay:10.37,2013-02-28 05:23:00,
2013-02-28 00:28:00,25.4,23.7,29.68,ESE,119,11.0,11.0,93,0.00,OVC,FEW,0.00,0.0,WeatherDisplay:10.37,2013-02-28 05:28:00,
2013-02-28 00:33:00,25.4,23.4,29.69,East,98,13.0,13.0,92,0.00,OVC,FEW,0.00,0.0,WeatherDisplay:10.37,2013-02-28 05:33:00,
2013-02-28 00:38:00,25.3,23.3,29.69,ESE,109,9.2,9.2,92,0.00,OVC,FEW,0.00,0.0,WeatherDisplay:10.37,2013-02-28 05:38:00,
2013-02-28 00:43:00,25.2,23.5,29.68,ESE,112,7.0,7.0,93,0.00,OVC,FEW,0.00,0.0,WeatherDisplay:10.37,2013-02-28 05:43:00,
2013-02-28 00:48:00,25.2,23.5,29.68,ESE,123,4.0,4.0,93,0.00,OVC,FEW,0.00,0.0,WeatherDisplay:10.37,2013-02-28 05:48:00,
2013-02-28 00:53:00,25.1,23.4,29.68,ESE,109,8.1,8.1,93,0.00,OVC,FEW,0.00,0.0,WeatherDisplay:10.37,2013-02-28 05:53:00,
2013-02-28 00:58:00,25.0,23.3,29.67,ESE,111,11.0,11.0,93,0.00,OVC,FEW,0.00,0.0,WeatherDisplay:10.37,2013-02-28 05:58:00,
2013-02-28 01:03:00,25.0,23.3,29.67,ESE,112,11.5,11.5,93,0.00,OVC,FEW,0.00,0.0,WeatherDisplay:10.37,2013-02-28 06:03:00,
2013-02-28 01:08:00,24.9,23.2,29.66,East,99,12.0,12.0,93,0.00,OVC,FEW,0.00,0.0,WeatherDisplay:10.37,2013-02-28 06:08:00,
2013-02-28 01:13:00,24.9,23.2,29.66,ESE,122,13.0,13.0,93,0.00,OVC,FEW,0.00,0.0,WeatherDisplay:10.37,2013-02-28 06:13:00,
2013-02-28 01:18:00,24.9,23.2,29.67,ESE,114,9.2,9.2,93,0.00,OVC,FEW,0.00,0.0,WeatherDisplay:10.37,2013-02-28 06:18:00,
2013-02-28 01:23:00,24.9,23.2,29.66,ESE,112,11.5,11.5,93,0.00,OVC,FEW,0.00,0.0,WeatherDisplay:10.37,2013-02-28 06:23:00,
2013-02-28 01:28:00,24.9,23.2,29.66,ESE,109,8.1,8.1,93,0.00,OVC,FEW,0.00,0.0,WeatherDisplay:10.37,2013-02-28 06:28:00,
2013-02-28 01:33:00,24.9,23.2,29.66,ESE,102,15.0,15.0,93,0.00,OVC,FEW,0.00,0.0,WeatherDisplay:10.37,2013-02-28 06:33:00,
2013-02-28 01:38:00,24.9,23.2,29.66,ESE,114,11.5,11.5,93,0.00,OVC,FEW,0.00,0.0,WeatherDisplay:10.37,2013-02-28 06:38:00,
2013-02-28 01:43:00,24.9,23.2,29.65,East,89,12.0,12.0,93,0.00,OVC,FEW,0.00,0.0,WeatherDisplay:10.37,2013-02-28 06:43:00,
2013-02-28 01:49:00,24.9,23.2,29.66,SE,126,11.0,11.0,93,0.00,OVC,FEW,0.00,0.0,WeatherDisplay:10.37,2013-02-28 06:49:00,
2013-02-28 01:54:00,25.0,23.3,29.65,SE,126,12.0,12.0,93,0.00,OVC,FEW,0.00,0.0,WeatherDisplay:10.37,2013-02-28 06:54:00,
2013-02-28 01:59:00,25.0,23.3,29.65,East,98,12.0,12.0,93,0.00,OVC,FEW,0.00,0.0,WeatherDisplay:10.37,2013-02-28 06:59:00,
2013-02-28 02:04:00,25.0,23.3,29.64,East,92,12.7,12.7,93,0.00,OVC,FEW,0.00,0.0,WeatherDisplay:10.37,2013-02-28 07:04:00,
2013-02-28 02:09:00,25.0,23.3,29.64,SE,138,15.0,15.0,93,0.00,OVC,FEW,0.00,0.0,WeatherDisplay:10.37,2013-02-28 07:09:00,
2013-02-28 02:14:00,24.9,23.2,29.64,East,84,13.0,13.0,93,0.00,OVC,FEW,0.00,0.0,WeatherDisplay:10.37,2013-02-28 07:14:00,
2013-02-28 02:19:00,24.9,23.4,29.63,ESE,119,10.0,10.0,94,0.00,OVC,FEW,0.00,0.0,WeatherDisplay:10.37,2013-02-28 07:19:00,
2013-02-28 02:24:00,24.8,23.3,29.63,ESE,120,5.0,5.0,94,0.00,OVC,FEW,0.00,0.0,WeatherDisplay:10.37,2013-02-28 07:24:00,
2013-02-28 02:29:00,24.8,23.3,29.63,ESE,104,15.0,15.0,94,0.00,OVC,FEW,0.00,0.0,WeatherDisplay:10.37,2013-02-28 07:29:00,
2013-02-28 02:34:00,24.8,23.1,29.63,SE,124,10.4,10.4,93,0.00,OVC,FEW,0.00,0.0,WeatherDisplay:10.37,2013-02-28 07:34:00,
2013-02-28 02:39:00,24.8,23.1,29.63,ESE,103,12.0,12.0,93,0.00,OVC,FEW,0.00,0.0,WeatherDisplay:10.37,2013-02-28 07:39:00,
2013-02-28 02:44:00,24.8,23.1,29.62,ESE,121,9.2,9.2,93,0.00,OVC,FEW,0.00,0.0,WeatherDisplay:10.37,2013-02-28 07:44:00,
2013-02-28 02:49:00,24.9,23.2,29.62,SE,139,5.0,5.0,93,0.00,OVC,FEW,0.00,0.0,WeatherDisplay:10.37,2013-02-28 07:49:00,
2013-02-28 02:54:00,24.9,23.2,29.62,East,101,6.0,6.0,93,0.00,OVC,FEW,0.00,0.0,WeatherDisplay:10.37,2013-02-28 07:54:00,
2013-02-28 02:59:00,24.9,23.2,29.62,ESE,117,12.0,12.0,93,0.00,OVC,FEW,0.00,0.0,WeatherDisplay:10.37,2013-02-28 07:59:00,
2013-02-28 03:04:00,24.9,23.2,29.62,ESE,111,11.5,11.5,93,0.00,OVC,FEW,0.00,0.0,WeatherDisplay:10.37,2013-02-28 08:04:00,
2013-02-28 03:09:00,24.9,23.2,29.62,SE,142,9.2,9.2,93,0.00,OVC,FEW,0.00,0.0,WeatherDisplay:10.37,2013-02-28 08:09:00,
2013-02-28 03:14:00,24.9,23.2,29.61,ESE,108,15.0,15.0,93,0.00,OVC,FEW,0.00,0.0,WeatherDisplay:10.37,2013-02-28 08:14:00,
2013-02-28 03:19:00,24.9,23.2,29.61,East,90,11.0,11.0,93,0.00,BKN,FEW,0.00,0.0,WeatherDisplay:10.37,2013-02-28 08:19:00,
2013-02-28 03:24:00,24.9,23.2,29.61,East,97,13.0,13.0,93,0.00,BKN,FEW,0.00,0.0,WeatherDisplay:10.37,2013-02-28 08:24:00,
2013-02-28 03:29:00,24.9,23.2,29.62,East,100,10.4,10.4,93,0.00,BKN,FEW,0.00,0.0,WeatherDisplay:10.37,2013-02-28 08:29:00,
2013-02-28 03:34:00,25.0,23.3,29.62,ESE,117,12.0,12.0,93,0.00,BKN,FEW,0.00,0.0,WeatherDisplay:10.37,2013-02-28 08:34:00,
2013-02-28 03:39:00,24.9,23.2,29.61,ESE,121,10.4,10.4,93,0.00,BKN,FEW,0.00,0.0,WeatherDisplay:10.37,2013-02-28 08:39:00,
2013-02-28 03:44:00,24.9,23.2,29.61,ESE,110,11.5,11.5,93,0.00,BKN,FEW,0.00,0.0,WeatherDisplay:10.37,2013-02-28 08:44:00,
2013-02-28 03:49:00,24.8,23.1,29.60,SE,132,13.0,13.0,93,0.00,BKN,FEW,0.00,0.0,WeatherDisplay:10.37,2013-02-28 08:49:00,
2013-02-28 03:54:00,24.9,23.2,29.60,SE,126,11.5,11.5,93,0.00,BKN,FEW,0.00,0.0,WeatherDisplay:10.37,2013-02-28 08:54:00,
2013-02-28 03:59:00,25.0,23.3,29.60,ESE,115,15.0,15.0,93,0.00,BKN,FEW,0.00,0.0,WeatherDisplay:10.37,2013-02-28 08:59:00,
2013-02-28 04:04:00,25.1,23.4,29.60,ESE,117,11.5,11.5,93,0.00,OVC,FEW,0.00,0.0,WeatherDisplay:10.37,2013-02-28 09:04:00,
2013-02-28 04:09:00,25.2,23.2,29.60,East,81,11.5,11.5,92,0.00,OVC,FEW,0.00,0.0,WeatherDisplay:10.37,2013-02-28 09:09:00,
2013-02-28 04:14:00,25.2,23.5,29.60,East,96,14.0,14.0,93,0.00,OVC,FEW,0.00,0.0,WeatherDisplay:10.37,2013-02-28 09:14:00,
2013-02-28 04:19:00,25.1,23.4,29.60,SE,135,11.5,11.5,93,0.00,OVC,FEW,0.00,0.0,WeatherDisplay:10.37,2013-02-28 09:19:00,
2013-02-28 04:24:00,25.1,23.4,29.60,ESE,111,10.4,10.4,93,0.00,OVC,FEW,0.00,0.0,WeatherDisplay:10.37,2013-02-28 09:24:00,
2013-02-28 04:29:00,25.2,23.5,29.60,ESE,102,11.5,11.5,93,0.00,OVC,FEW,0.00,0.0,WeatherDisplay:10.37,2013-02-28 09:29:00,
2013-02-28 04:35:00,25.2,23.5,29.60,ESE,117,8.1,8.1,93,0.00,OVC,FEW,0.00,0.0,WeatherDisplay:10.37,2013-02-28 09:35:00,
2013-02-28 04:40:00,25.2,23.7,29.60,ESE,103,16.1,16.1,94,0.00,OVC,FEW,0.00,0.0,WeatherDisplay:10.37,2013-02-28 09:40:00,
2013-02-28 04:45:00,25.2,23.5,29.60,SSE,149,10.4,10.4,93,0.00,OVC,FEW,0.00,0.0,WeatherDisplay:10.37,2013-02-28 09:45:00,
2013-02-28 04:50:00,25.2,23.7,29.60,SE,129,6.9,6.9,94,0.00,OVC,FEW,0.00,0.0,WeatherDisplay:10.37,2013-02-28 09:50:00,
2013-02-28 04:55:00,25.2,23.7,29.60,ESE,123,10.4,10.4,94,0.00,OVC,FEW,0.00,0.0,WeatherDisplay:10.37,2013-02-28 09:55:00,
2013-02-28 05:00:00,25.2,23.7,29.60,ESE,121,6.0,6.0,94,0.00,OVC,FEW,0.00,0.0,WeatherDisplay:10.37,2013-02-28 10:00:00,
2013-02-28 05:06:00,25.2,23.7,29.60,ESE,115,10.4,10.4,94,0.00,OVC,FEW,0.00,0.0,WeatherDisplay:10.37,2013-02-28 10:06:00,
2013-02-28 05:11:00,25.3,23.8,29.60,SE,129,13.0,13.0,94,0.00,OVC,FEW,0.00,0.0,WeatherDisplay:10.37,2013-02-28 10:11:00,
2013-02-28 05:16:00,25.3,23.8,29.59,ESE,113,11.5,11.5,94,0.00,OVC,FEW,0.00,0.0,WeatherDisplay:10.37,2013-02-28 10:16:00,
2013-02-28 05:21:00,25.5,24.0,29.59,East,96,11.0,11.0,94,0.00,OVC,FEW,0.00,0.0,WeatherDisplay:10.37,2013-02-28 10:21:00,
2013-02-28 05:26:00,25.7,24.2,29.59,SE,134,10.0,10.0,94,0.00,OVC,FEW,0.00,0.0,WeatherDisplay:10.37,2013-02-28 10:26:00,
2013-02-28 05:31:00,25.8,24.1,29.59,ESE,102,5.0,5.0,93,0.00,OVC,FEW,0.00,0.0,WeatherDisplay:10.37,2013-02-28 10:31:00,
2013-02-28 05:36:00,25.9,24.2,29.59,SE,141,9.2,9.2,93,0.00,OVC,FEW,0.00,0.0,WeatherDisplay:10.37,2013-02-28 10:36:00,
2013-02-28 05:41:00,26.1,24.4,29.60,ESE,119,11.5,11.5,93,0.00,OVC,FEW,0.00,0.0,WeatherDisplay:10.37,2013-02-28 10:41:00,
2013-02-28 05:46:00,26.2,24.5,29.60,South,180,2.3,2.3,93,0.00,OVC,FEW,0.00,0.0,WeatherDisplay:10.37,2013-02-28 10:46:00,
2013-02-28 05:51:00,26.2,24.5,29.60,South,184,3.5,3.5,93,0.00,OVC,FEW,0.00,0.0,WeatherDisplay:10.37,2013-02-28 10:51:00,
2013-02-28 05:56:00,26.3,24.3,29.59,East,84,9.2,9.2,92,0.00,OVC,FEW,0.00,0.0,WeatherDisplay:10.37,2013-02-28 10:56:00,
2013-02-28 06:01:00,26.5,24.5,29.60,SE,137,12.0,12.0,92,0.00,OVC,FEW,0.00,0.0,WeatherDisplay:10.37,2013-02-28 11:01:00,
2013-02-28 06:06:00,26.5,24.8,29.59,SSE,157,7.0,7.0,93,0.00,OVC,FEW,0.00,0.0,WeatherDisplay:10.37,2013-02-28 11:06:00,
2013-02-28 06:11:00,26.7,24.9,29.59,SSE,155,9.2,9.2,93,0.00,OVC,FEW,0.00,0.0,WeatherDisplay:10.37,2013-02-28 11:11:00,
2013-02-28 06:16:00,26.7,24.9,29.59,SE,138,5.8,5.8,93,0.00,OVC,FEW,0.00,0.0,WeatherDisplay:10.37,2013-02-28 11:16:00,
2013-02-28 06:21:00,26.5,24.8,29.59,SSE,147,3.5,3.5,93,0.00,OVC,FEW,0.00,0.0,WeatherDisplay:10.37,2013-02-28 11:21:00,
2013-02-28 06:26:00,26.6,24.8,29.59,ESE,105,6.0,6.0,93,0.00,OVC,FEW,0.00,0.0,WeatherDisplay:10.37,2013-02-28 11:26:00,
2013-02-28 06:31:00,26.6,24.8,29.60,ESE,111,11.5,11.5,93,0.00,OVC,FEW,0.00,0.0,WeatherDisplay:10.37,2013-02-28 11:31:00,
2013-02-28 06:36:00,26.7,24.9,29.60,South,169,2.3,2.3,93,0.00,OVC,FEW,0.00,0.0,WeatherDisplay:10.37,2013-02-28 11:36:00,
2013-02-28 06:41:00,26.8,25.0,29.60,South,178,3.5,3.5,93,0.00,OVC,FEW,0.00,0.0,WeatherDisplay:10.37,2013-02-28 11:41:00,
2013-02-28 06:46:00,26.9,25.1,29.61,SE,143,9.2,9.2,93,0.00,OVC,FEW,0.00,0.0,WeatherDisplay:10.37,2013-02-28 11:46:00,
2013-02-28 06:51:00,27.0,25.2,29.60,SE,130,5.0,5.0,93,0.00,OVC,FEW,0.00,0.0,WeatherDisplay:10.37,2013-02-28 11:51:00,
2013-02-28 06:56:00,27.1,25.1,29.60,East,98,11.0,11.0,92,0.00,OVC,FEW,0.00,0.0,WeatherDisplay:10.37,2013-02-28 11:56:00,
2013-02-28 07:01:00,27.2,25.2,29.61,SE,145,5.0,5.0,92,0.00,OVC,FEW,0.00,7.0,WeatherDisplay:10.37,2013-02-28 12:01:00,
2013-02-28 07:06:00,27.2,25.4,29.61,ESE,115,11.5,11.5,93,0.00,OVC,FEW,0.00,12.0,WeatherDisplay:10.37,2013-02-28 12:06:00,
2013-02-28 07:11:00,27.1,25.3,29.61,SSE,158,9.0,9.0,93,0.00,OVC,FEW,0.00,14.0,WeatherDisplay:10.37,2013-02-28 12:11:00,
2013-02-28 07:16:00,27.0,25.2,29.61,SE,126,10.4,10.4,93,0.00,OVC,FEW,0.00,7.0,WeatherDisplay:10.37,2013-02-28 12:16:00,
2013-02-28 07:21:00,26.9,25.1,29.61,ESE,105,9.2,9.2,93,0.00,OVC,FEW,0.00,11.0,WeatherDisplay:10.37,2013-02-28 12:21:00,
2013-02-28 07:26:00,26.9,25.1,29.61,SE,132,5.0,5.0,93,0.00,OVC,FEW,0.00,9.0,WeatherDisplay:10.37,2013-02-28 12:26:00,
2013-02-28 07:31:00,26.9,25.1,29.61,SE,142,7.0,7.0,93,0.00,OVC,FEW,0.00,7.0,WeatherDisplay:10.37,2013-02-28 12:31:00,
2013-02-28 07:36:00,26.8,25.0,29.61,ESE,107,3.5,3.5,93,0.00,OVC,FEW,0.00,14.0,WeatherDisplay:10.37,2013-02-28 12:36:00,
2013-02-28 07:41:00,26.8,25.3,29.62,South,182,5.0,5.0,94,0.00,OVC,FEW,0.00,19.0,WeatherDisplay:10.37,2013-02-28 12:41:00,
2013-02-28 07:46:00,26.9,25.4,29.62,SSE,163,3.5,3.5,94,0.00,OVC,FEW,0.00,32.0,WeatherDisplay:10.37,2013-02-28 12:46:00,
2013-02-28 07:51:00,26.9,25.4,29.61,SE,145,4.0,4.0,94,0.00,OVC,FEW,0.00,46.0,WeatherDisplay:10.37,2013-02-28 12:51:00,
2013-02-28 07:56:00,27.0,25.5,29.61,SSE,155,3.5,3.5,94,0.00,OVC,FEW,0.00,44.0,WeatherDisplay:10.37,2013-02-28 12:56:00,
2013-02-28 08:01:00,27.1,25.6,29.62,SSE,161,5.0,5.0,94,0.00,OVC,FEW,0.00,44.0,WeatherDisplay:10.37,2013-02-28 13:01:00,
2013-02-28 08:06:00,27.2,25.7,29.62,South,171,4.0,4.0,94,0.00,OVC,FEW,0.00,46.0,WeatherDisplay:10.37,2013-02-28 13:06:00,
2013-02-28 08:11:00,27.2,25.7,29.62,SSE,167,5.0,5.0,94,0.00,OVC,FEW,0.00,44.0,WeatherDisplay:10.37,2013-02-28 13:11:00,
2013-02-28 08:16:00,27.2,25.7,29.61,SSE,165,4.0,4.0,94,0.00,OVC,FEW,0.00,54.0,WeatherDisplay:10.37,2013-02-28 13:16:00,
2013-02-28 08:21:00,27.3,25.8,29.61,SSW,198,4.0,4.0,94,0.00,OVC,FEW,0.00,67.0,WeatherDisplay:10.37,2013-02-28 13:21:00,
2013-02-28 08:26:00,27.3,25.8,29.61,SSE,156,4.0,4.0,94,0.00,OVC,FEW,0.00,67.0,WeatherDisplay:10.37,2013-02-28 13:26:00,
2013-02-28 08:31:00,27.4,25.9,29.62,South,175,6.0,6.0,94,0.00,OVC,FEW,0.00,62.0,WeatherDisplay:10.37,2013-02-28 13:31:00,
2013-02-28 08:37:00,27.5,26.0,29.61,South,169,7.0,7.0,94,0.00,BKN,FEW,0.00,60.0,WeatherDisplay:10.37,2013-02-28 13:37:00,
2013-02-28 08:42:00,27.5,26.0,29.62,South,181,5.0,5.0,94,0.00,BKN,FEW,0.00,56.0,WeatherDisplay:10.37,2013-02-28 13:42:00,
2013-02-28 08:47:00,27.6,26.1,29.62,South,185,5.0,5.0,94,0.00,BKN,FEW,0.00,70.0,WeatherDisplay:10.37,2013-02-28 13:47:00,
2013-02-28 08:52:00,27.7,26.2,29.62,SSE,156,5.0,5.0,94,0.00,BKN,FEW,0.00,83.0,WeatherDisplay:10.37,2013-02-28 13:52:00,
2013-02-28 08:57:00,27.8,26.3,29.62,SSE,158,0.0,0.0,94,0.00,BKN,FEW,0.00,97.0,WeatherDisplay:10.37,2013-02-28 13:57:00,
2013-02-28 09:02:00,27.9,26.1,29.62,SSE,166,3.5,3.5,93,0.00,BKN,FEW,0.00,104.0,WeatherDisplay:10.37,2013-02-28 14:02:00,
2013-02-28 09:07:00,28.1,26.6,29.62,South,181,1.2,1.2,94,0.00,OVC,FEW,0.00,107.0,WeatherDisplay:10.37,2013-02-28 14:07:00,
2013-02-28 09:12:00,28.2,26.7,29.62,South,174,3.5,3.5,94,0.00,OVC,FEW,0.00,116.0,WeatherDisplay:10.37,2013-02-28 14:12:00,
2013-02-28 09:17:00,28.4,26.9,29.62,South,173,2.3,2.3,94,0.00,OVC,FEW,0.00,118.0,WeatherDisplay:10.37,2013-02-28 14:17:00,
2013-02-28 09:22:00,28.5,27.0,29.62,South,183,5.0,5.0,94,0.00,OVC,FEW,0.00,104.0,WeatherDisplay:10.37,2013-02-28 14:22:00,
2013-02-28 09:27:00,28.5,26.7,29.62,South,176,4.0,4.0,93,0.00,OVC,FEW,0.00,102.0,WeatherDisplay:10.37,2013-02-28 14:27:00,
2013-02-28 09:32:00,28.6,26.8,29.61,SSE,166,5.0,5.0,93,0.00,OVC,FEW,0.00,107.0,WeatherDisplay:10.37,2013-02-28 14:32:00,
2013-02-28 09:37:00,28.7,26.9,29.61,SSE,164,4.0,4.0,93,0.00,OVC,FEW,0.00,109.0,WeatherDisplay:10.37,2013-02-28 14:37:00,
2013-02-28 09:42:00,28.8,27.0,29.61,SSE,167,2.3,2.3,93,0.00,OVC,FEW,0.00,120.0,WeatherDisplay:10.37,2013-02-28 14:42:00,
2013-02-28 09:47:00,28.9,27.1,29.61,South,181,5.0,5.0,93,0.00,OVC,FEW,0.00,127.0,WeatherDisplay:10.37,2013-02-28 14:47:00,
2013-02-28 09:52:00,29.1,27.3,29.62,South,178,3.5,3.5,93,0.00,OVC,FEW,0.00,127.0,WeatherDisplay:10.37,2013-02-28 14:52:00,
2013-02-28 09:57:00,29.2,27.4,29.62,SE,135,3.5,3.5,93,0.00,OVC,FEW,0.00,128.0,WeatherDisplay:10.37,2013-02-28 14:57:00,
2013-02-28 10:02:00,29.2,27.4,29.62,SE,140,2.3,2.3,93,0.00,CLR,FEW,0.00,148.0,WeatherDisplay:10.37,2013-02-28 15:02:00,
2013-02-28 10:07:00,29.4,27.6,29.61,SE,140,2.3,0.0,93,0.00,CLR,FEW,0.00,167.0,WeatherDisplay:10.37,2013-02-28 15:07:00,
2013-02-28 10:12:00,29.6,27.8,29.61,East,95,6.0,6.0,93,0.00,CLR,FEW,0.00,190.0,WeatherDisplay:10.37,2013-02-28 15:12:00,
2013-02-28 10:17:00,29.8,28.0,29.61,East,98,2.3,2.3,93,0.00,CLR,FEW,0.00,185.0,WeatherDisplay:10.37,2013-02-28 15:17:00,
2013-02-28 10:22:00,29.8,27.8,29.62,South,179,6.9,6.9,92,0.00,CLR,FEW,0.00,174.0,WeatherDisplay:10.37,2013-02-28 15:22:00,
2013-02-28 10:27:00,29.9,28.1,29.62,SE,130,4.0,4.0,93,0.00,CLR,FEW,0.00,148.0,WeatherDisplay:10.37,2013-02-28 15:27:00,
2013-02-28 10:32:00,29.9,27.9,29.61,SSE,157,2.3,2.3,92,0.00,CLR,FEW,0.00,209.0,WeatherDisplay:10.37,2013-02-28 15:32:00,
2013-02-28 10:37:00,30.0,28.0,29.61,SSE,153,4.0,4.0,92,0.00,CLR,FEW,0.00,246.0,WeatherDisplay:10.37,2013-02-28 15:37:00,
2013-02-28 10:42:00,30.1,28.1,29.61,SSE,153,5.0,5.0,92,0.00,CLR,FEW,0.00,278.0,WeatherDisplay:10.37,2013-02-28 15:42:00,
2013-02-28 10:47:00,30.3,28.3,29.62,SE,125,3.5,3.5,92,0.00,CLR,FEW,0.00,221.0,WeatherDisplay:10.37,2013-02-28 15:47:00,
2013-02-28 10:52:00,30.4,28.4,29.62,SE,134,3.5,3.5,92,0.00,CLR,FEW,0.00,204.0,WeatherDisplay:10.37,2013-02-28 15:52:00,
2013-02-28 10:57:00,30.4,28.4,29.62,SE,139,1.2,1.2,92,0.00,CLR,FEW,0.00,165.0,WeatherDisplay:10.37,2013-02-28 15:57:00,
2013-02-28 11:02:00,30.4,28.4,29.62,SSE,148,3.5,3.5,92,0.00,CLR,FEW,0.00,260.0,WeatherDisplay:10.37,2013-02-28 16:02:00,
2013-02-28 11:07:00,30.5,28.5,29.62,SE,146,3.5,3.5,92,0.00,CLR,FEW,0.00,279.0,WeatherDisplay:10.37,2013-02-28 16:07:00,
2013-02-28 11:12:00,30.6,28.6,29.62,SE,145,2.3,2.3,92,0.00,CLR,FEW,0.00,229.0,WeatherDisplay:10.37,2013-02-28 16:12:00,
2013-02-28 11:17:00,30.6,28.3,29.62,SE,145,3.5,3.5,91,0.00,CLR,FEW,0.00,236.0,WeatherDisplay:10.37,2013-02-28 16:17:00,
2013-02-28 11:22:00,30.7,28.7,29.61,SE,144,1.2,1.2,92,0.00,CLR,FEW,0.00,250.0,WeatherDisplay:10.37,2013-02-28 16:22:00,
2013-02-28 11:27:00,30.9,28.9,29.61,SSE,148,2.3,2.3,92,0.00,CLR,FEW,0.00,295.0,WeatherDisplay:10.37,2013-02-28 16:27:00,
2013-02-28 11:32:00,31.1,28.8,29.61,SSE,150,3.5,3.5,91,0.00,CLR,FEW,0.00,308.0,WeatherDisplay:10.37,2013-02-28 16:32:00,
2013-02-28 11:37:00,31.1,28.8,29.61,SSE,151,3.0,3.0,91,0.00,CLR,FEW,0.00,306.0,WeatherDisplay:10.37,2013-02-28 16:37:00,
2013-02-28 11:42:00,31.2,28.9,29.61,SSE,149,4.0,4.0,91,0.00,CLR,FEW,0.00,271.0,WeatherDisplay:10.37,2013-02-28 16:42:00,
2013-02-28 11:47:00,31.2,28.9,29.61,SSE,149,2.3,2.3,91,0.00,CLR,FEW,0.00,381.0,WeatherDisplay:10.37,2013-02-28 16:47:00,
2013-02-28 11:52:00,31.5,29.2,29.61,SSE,152,2.3,2.3,91,0.00,CLR,FEW,0.00,471.0,WeatherDisplay:10.37,2013-02-28 16:52:00,
2013-02-28 11:57:00,31.8,29.5,29.61,SSE,153,2.3,2.3,91,0.00,CLR,FEW,0.00,448.0,WeatherDisplay:10.37,2013-02-28 16:57:00,
2013-02-28 12:02:00,31.9,29.3,29.61,SSE,157,4.0,4.0,90,0.00,BKN,FEW,0.00,378.0,WeatherDisplay:10.37,2013-02-28 17:02:00,
2013-02-28 12:07:00,32.1,29.5,29.61,SSE,167,4.0,4.0,90,0.00,BKN,FEW,0.00,378.0,WeatherDisplay:10.37,2013-02-28 17:07:00,
2013-02-28 12:12:00,32.1,29.5,29.61,SSE,161,2.3,2.3,90,0.02,RA,FEW,0.02,336.0,WeatherDisplay:10.37,2013-02-28 17:12:00,
2013-02-28 12:17:00,32.1,29.5,29.61,SSE,159,4.0,4.0,90,0.02,RA,FEW,0.02,403.0,WeatherDisplay:10.37,2013-02-28 17:17:00,
2013-02-28 12:22:00,32.3,29.7,29.60,SSE,159,2.3,2.3,90,0.02,BKN,FEW,0.02,387.0,WeatherDisplay:10.37,2013-02-28 17:22:00,
2013-02-28 12:27:00,32.5,29.9,29.60,SSE,159,2.0,2.0,90,0.03,RA,FEW,0.03,309.0,WeatherDisplay:10.37,2013-02-28 17:27:00,
2013-02-28 12:32:00,32.5,29.9,29.60,SSE,157,3.5,3.5,90,0.03,RA,FEW,0.03,292.0,WeatherDisplay:10.37,2013-02-28 17:32:00,
2013-02-28 12:37:00,32.5,29.6,29.60,SSE,168,3.5,3.5,89,0.04,RA,FEW,0.04,260.0,WeatherDisplay:10.37,2013-02-28 17:37:00,
2013-02-28 12:42:00,32.5,29.6,29.60,SSE,167,4.0,4.0,89,0.04,RA,FEW,0.04,255.0,WeatherDisplay:10.37,2013-02-28 17:42:00,
2013-02-28 12:48:00,32.5,29.9,29.60,SSE,167,2.3,2.3,90,0.05,RA,FEW,0.05,330.0,WeatherDisplay:10.37,2013-02-28 17:48:00,
2013-02-28 12:53:00,32.7,30.1,29.60,SSE,167,1.2,0.0,90,0.05,RA,FEW,0.05,271.0,WeatherDisplay:10.37,2013-02-28 17:53:00,
2013-02-28 12:58:00,32.9,30.3,29.60,SSE,167,2.3,2.3,90,0.05,BKN,FEW,0.05,225.0,WeatherDisplay:10.37,2013-02-28 17:58:00,
2013-02-28 13:03:00,32.9,30.0,29.60,SSE,165,4.0,4.0,89,0.06,RA,FEW,0.06,288.0,WeatherDisplay:10.37,2013-02-28 18:03:00,
2013-02-28 13:08:00,32.9,30.0,29.60,SSE,159,4.0,4.0,89,0.06,RA,FEW,0.06,258.0,WeatherDisplay:10.37,2013-02-28 18:08:00,
2013-02-28 13:13:00,32.9,30.0,29.60,SSE,159,3.5,3.5,89,0.05,RA,FEW,0.07,241.0,WeatherDisplay:10.37,2013-02-28 18:13:00,
2013-02-28 13:18:00,32.9,30.0,29.60,SSE,155,2.0,2.0,89,0.05,RA,FEW,0.07,218.0,WeatherDisplay:10.37,2013-02-28 18:18:00,
2013-02-28 13:23:00,33.0,30.1,29.60,SSE,155,3.5,3.5,89,0.05,OVC,FEW,0.07,220.0,WeatherDisplay:10.37,2013-02-28 18:23:00,
2013-02-28 13:28:00,33.1,30.2,29.60,SSE,157,3.5,3.5,89,0.04,OVC,FEW,0.07,236.0,WeatherDisplay:10.37,2013-02-28 18:28:00,
2013-02-28 13:33:00,33.1,30.2,29.60,SSE,157,2.3,0.0,89,0.04,OVC,FEW,0.07,216.0,WeatherDisplay:10.37,2013-02-28 18:33:00,
2013-02-28 13:38:00,33.2,30.3,29.60,SSE,157,2.3,0.0,89,0.04,RA,FEW,0.08,192.0,WeatherDisplay:10.37,2013-02-28 18:38:00,
2013-02-28 13:43:00,33.1,29.9,29.60,SSE,157,1.2,1.2,88,0.04,RA,FEW,0.08,181.0,WeatherDisplay:10.37,2013-02-28 18:43:00,
2013-02-28 13:48:00,33.1,30.2,29.60,SSE,157,2.3,2.3,89,0.04,RA,FEW,0.09,225.0,WeatherDisplay:10.37,2013-02-28 18:48:00,
2013-02-28 13:53:00,33.2,30.3,29.60,SSE,157,1.2,1.2,89,0.04,RA,FEW,0.09,225.0,WeatherDisplay:10.37,2013-02-28 18:53:00,
2013-02-28 13:58:00,33.3,30.4,29.59,SE,128,2.3,0.0,89,0.04,RA,FEW,0.09,218.0,WeatherDisplay:10.37,2013-02-28 18:58:00,
2013-02-28 14:03:00,33.3,30.7,29.59,SE,128,1.2,1.2,90,0.03,OVC,FEW,0.09,241.0,WeatherDisplay:10.37,2013-02-28 19:03:00,
2013-02-28 14:09:00,33.4,30.8,29.59,SE,128,0.0,0.0,90,0.03,OVC,FEW,0.09,236.0,WeatherDisplay:10.37,2013-02-28 19:09:00,
2013-02-28 14:14:00,33.4,31.1,29.59,SE,128,3.5,3.5,91,0.03,RA,FEW,0.10,206.0,WeatherDisplay:10.37,2013-02-28 19:14:00,
2013-02-28 14:19:00,33.2,30.9,29.58,SE,128,1.2,1.2,91,0.03,RA,FEW,0.10,197.0,WeatherDisplay:10.37,2013-02-28 19:19:00,
2013-02-28 14:24:00,33.3,31.0,29.58,SE,128,3.5,3.5,91,0.03,OVC,FEW,0.10,199.0,WeatherDisplay:10.37,2013-02-28 19:24:00,
2013-02-28 14:29:00,33.3,31.0,29.58,SE,128,0.0,0.0,91,0.04,RA,FEW,0.11,197.0,WeatherDisplay:10.37,2013-02-28 19:29:00,
2013-02-28 14:34:00,33.4,31.3,29.58,SE,128,1.0,0.0,92,0.03,RA,FEW,0.11,207.0,WeatherDisplay:10.37,2013-02-28 19:34:00,
2013-02-28 14:39:00,33.4,31.1,29.58,SE,128,0.0,0.0,91,0.03,OVC,FEW,0.11,207.0,WeatherDisplay:10.37,2013-02-28 19:39:00,
2013-02-28 14:44:00,33.4,31.3,29.59,SE,128,1.0,1.0,92,0.03,OVC,FEW,0.11,151.0,WeatherDisplay:10.37,2013-02-28 19:44:00,
2013-02-28 14:49:00,33.3,31.2,29.58,SE,128,1.2,0.0,92,0.03,RA,FEW,0.12,139.0,WeatherDisplay:10.37,2013-02-28 19:49:00,
2013-02-28 14:54:00,33.3,31.2,29.58,SE,128,1.2,1.2,92,0.03,RA,FEW,0.12,160.0,WeatherDisplay:10.37,2013-02-28 19:54:00,
2013-02-28 14:59:00,33.1,31.0,29.58,SE,128,0.0,0.0,92,0.03,OVC,FEW,0.12,135.0,WeatherDisplay:10.37,2013-02-28 19:59:00,
2013-02-28 15:04:00,33.2,31.1,29.59,SE,128,1.2,1.2,92,0.03,OVC,FEW,0.13,121.0,WeatherDisplay:10.37,2013-02-28 20:04:00,
2013-02-28 15:09:00,33.1,31.0,29.58,SE,128,3.5,3.5,92,0.03,RA,FEW,0.13,118.0,WeatherDisplay:10.37,2013-02-28 20:09:00,
2013-02-28 15:15:00,33.0,30.9,29.58,SE,128,1.2,0.0,92,0.03,OVC,FEW,0.13,118.0,WeatherDisplay:10.37,2013-02-28 20:15:00,
2013-02-28 15:20:00,33.1,31.3,29.58,SE,128,0.0,0.0,93,0.03,OVC,FEW,0.13,118.0,WeatherDisplay:10.37,2013-02-28 20:20:00,
2013-02-28 15:25:00,33.3,31.5,29.58,SE,128,3.0,3.0,93,0.03,OVC,FEW,0.13,139.0,WeatherDisplay:10.37,2013-02-28 20:25:00,
2013-02-28 15:30:00,33.4,31.6,29.58,SE,128,0.0,0.0,93,0.02,OVC,FEW,0.13,146.0,WeatherDisplay:10.37,2013-02-28 20:30:00,
2013-02-28 15:35:00,33.4,31.3,29.58,ESE,120,0.0,0.0,92,0.02,OVC,FEW,0.13,130.0,WeatherDisplay:10.37,2013-02-28 20:35:00,
2013-02-28 15:40:00,33.4,31.3,29.58,ESE,123,1.2,0.0,92,0.02,OVC,FEW,0.13,118.0,WeatherDisplay:10.37,2013-02-28 20:40:00,
2013-02-28 15:45:00,33.5,31.4,29.58,ESE,123,3.5,3.5,92,0.02,OVC,FEW,0.14,102.0,WeatherDisplay:10.37,2013-02-28 20:45:00,
2013-02-28 15:50:00,33.5,31.4,29.58,ESE,123,1.2,0.0,92,0.02,RA,FEW,0.14,100.0,WeatherDisplay:10.37,2013-02-28 20:50:00,
2013-02-28 15:55:00,33.4,31.1,29.58,ESE,123,2.3,2.3,91,0.02,RA,FEW,0.14,104.0,WeatherDisplay:10.37,2013-02-28 20:55:00,
2013-02-28 16:00:00,33.4,31.1,29.58,ESE,123,4.0,4.0,91,0.02,OVC,FEW,0.14,97.0,WeatherDisplay:10.37,2013-02-28 21:00:00,
2013-02-28 16:05:00,33.2,31.1,29.58,SE,132,2.3,2.3,92,0.01,OVC,FEW,0.14,83.0,WeatherDisplay:10.37,2013-02-28 21:05:00,
2013-02-28 16:10:00,33.2,31.1,29.58,SE,132,3.0,3.0,92,0.01,OVC,FEW,0.14,70.0,WeatherDisplay:10.37,2013-02-28 21:10:00,
2013-02-28 16:15:00,33.1,31.0,29.58,SE,132,0.0,0.0,92,0.01,OVC,FEW,0.14,58.0,WeatherDisplay:10.37,2013-02-28 21:15:00,
2013-02-28 16:20:00,33.1,31.0,29.58,SE,132,1.2,0.0,92,0.01,OVC,FEW,0.14,49.0,WeatherDisplay:10.37,2013-02-28 21:20:00,
2013-02-28 16:25:00,33.1,31.3,29.58,SE,132,1.2,0.0,93,0.02,RA,FEW,0.15,35.0,WeatherDisplay:10.37,2013-02-28 21:25:00,
2013-02-28 16:30:00,33.0,31.2,29.58,SE,132,1.2,0.0,93,0.02,OVC,FEW,0.15,28.0,WeatherDisplay:10.37,2013-02-28 21:30:00,
2013-02-28 16:35:00,32.9,31.1,29.58,SE,132,2.0,2.0,93,0.02,OVC,FEW,0.15,28.0,WeatherDisplay:10.37,2013-02-28 21:35:00,
2013-02-28 16:40:00,32.8,31.0,29.58,SE,132,0.0,0.0,93,0.02,OVC,FEW,0.15,26.0,WeatherDisplay:10.37,2013-02-28 21:40:00,
2013-02-28 16:45:00,32.7,30.9,29.58,SE,132,0.0,0.0,93,0.02,OVC,FEW,0.15,25.0,WeatherDisplay:10.37,2013-02-28 21:45:00,
2013-02-28 16:50:00,32.6,30.8,29.58,SE,132,0.0,0.0,93,0.01,OVC,FEW,0.15,21.0,WeatherDisplay:10.37,2013-02-28 21:50:00,
2013-02-28 16:55:00,32.6,30.8,29.58,SE,132,0.0,0.0,93,0.01,OVC,FEW,0.15,18.0,WeatherDisplay:10.37,2013-02-28 21:55:00,
2013-02-28 17:00:00,32.5,31.0,29.58,SE,132,1.2,0.0,94,0.01,OVC,FEW,0.15,12.0,WeatherDisplay:10.37,2013-02-28 22:00:00,
2013-02-28 17:05:00,32.5,31.0,29.58,SE,132,0.0,0.0,94,0.01,OVC,FEW,0.15,11.0,WeatherDisplay:10.37,2013-02-28 22:05:00,
2013-02-28 17:10:00,32.4,30.9,29.58,SE,132,1.2,1.2,94,0.01,OVC,FEW,0.15,7.0,WeatherDisplay:10.37,2013-02-28 22:10:00,
2013-02-28 17:15:00,32.2,30.7,29.58,SE,132,2.3,2.3,94,0.01,OVC,FEW,0.15,5.0,WeatherDisplay:10.37,2013-02-28 22:15:00,
2013-02-28 17:20:00,32.0,30.5,29.58,East,80,2.3,2.3,94,0.00,OVC,FEW,0.15,0.0,WeatherDisplay:10.37,2013-02-28 22:20:00,
2013-02-28 17:25:00,31.9,30.4,29.58,ESE,111,3.0,3.0,94,0.00,OVC,FEW,0.15,0.0,WeatherDisplay:10.37,2013-02-28 22:25:00,
2013-02-28 17:30:00,31.6,30.1,29.58,East,101,1.2,1.2,94,0.00,OVC,FEW,0.15,0.0,WeatherDisplay:10.37,2013-02-28 22:30:00,
2013-02-28 17:35:00,31.3,29.8,29.58,ESE,113,3.5,3.5,94,0.00,OVC,FEW,0.15,0.0,WeatherDisplay:10.37,2013-02-28 22:35:00,
2013-02-28 17:41:00,31.2,29.7,29.58,ESE,112,1.2,1.2,94,0.00,OVC,FEW,0.15,0.0,WeatherDisplay:10.37,2013-02-28 22:41:00,
2013-02-28 17:46:00,31.0,29.5,29.58,ESE,120,2.0,2.0,94,0.00,OVC,FEW,0.15,0.0,WeatherDisplay:10.37,2013-02-28 22:46:00,
2013-02-28 17:51:00,30.9,29.4,29.58,ESE,118,2.3,2.3,94,0.00,OVC,FEW,0.15,0.0,WeatherDisplay:10.37,2013-02-28 22:51:00,
2013-02-28 17:56:00,30.8,29.3,29.58,ESE,114,2.3,2.3,94,0.00,OVC,FEW,0.15,0.0,WeatherDisplay:10.37,2013-02-28 22:56:00,
2013-02-28 18:01:00,30.7,29.2,29.58,ESE,114,3.0,3.0,94,0.00,OVC,FEW,0.15,0.0,WeatherDisplay:10.37,2013-02-28 23:01:00,
2013-02-28 18:06:00,30.6,29.1,29.58,ESE,114,1.2,0.0,94,0.00,-RA,FEW,0.15,0.0,WeatherDisplay:10.37,2013-02-28 23:06:00,
2013-02-28 18:11:00,30.6,29.1,29.58,SSE,159,1.2,1.2,94,0.00,-RA,FEW,0.15,0.0,WeatherDisplay:10.37,2013-02-28 23:11:00,
2013-02-28 18:16:00,30.6,29.1,29.58,SE,133,0.0,0.0,94,0.00,-RA,FEW,0.15,0.0,WeatherDisplay:10.37,2013-02-28 23:16:00,
2013-02-28 18:21:00,30.6,29.1,29.58,SE,133,1.2,1.2,94,0.00,-RA,FEW,0.15,0.0,WeatherDisplay:10.37,2013-02-28 23:21:00,
2013-02-28 18:26:00,30.5,29.0,29.58,SSW,198,2.0,2.0,94,0.00,-RA,FEW,0.15,0.0,WeatherDisplay:10.37,2013-02-28 23:26:00,
2013-02-28 18:31:00,30.4,28.9,29.58,NE,43,2.0,2.0,94,0.00,-RA,FEW,0.15,0.0,WeatherDisplay:10.37,2013-02-28 23:31:00,
2013-02-28 18:36:00,30.2,28.7,29.58,East,101,1.2,1.2,94,0.00,-RA,FEW,0.15,0.0,WeatherDisplay:10.37,2013-02-28 23:36:00,
2013-02-28 18:41:00,30.1,28.3,29.58,ESE,107,4.0,4.0,93,0.00,-RA,FEW,0.15,0.0,WeatherDisplay:10.37,2013-02-28 23:41:00,
2013-02-28 18:46:00,29.9,28.1,29.58,ESE,104,2.0,0.0,93,0.00,-RA,FEW,0.15,0.0,WeatherDisplay:10.37,2013-02-28 23:46:00,
2013-02-28 18:51:00,29.9,28.4,29.58,East,101,0.0,0.0,94,0.00,-RA,FEW,0.15,0.0,WeatherDisplay:10.37,2013-02-28 23:51:00,
2013-02-28 18:56:00,29.7,28.2,29.58,SE,134,3.5,3.5,94,0.00,-RA,FEW,0.15,0.0,WeatherDisplay:10.37,2013-02-28 23:56:00,
2013-02-28 19:01:00,29.6,28.1,29.58,ESE,114,1.2,1.2,94,0.00,-RA,FEW,0.15,0.0,WeatherDisplay:10.37,2013-03-01 00:01:00,
2013-02-28 19:06:00,29.5,28.0,29.58,ESE,104,1.2,0.0,94,0.00,-RA,FEW,0.15,0.0,WeatherDisplay:10.37,2013-03-01 00:06:00,
2013-02-28 19:11:00,29.5,28.0,29.58,ENE,72,2.0,2.0,94,0.00,-RA,FEW,0.15,0.0,WeatherDisplay:10.37,2013-03-01 00:11:00,
2013-02-28 19:16:00,29.4,27.9,29.58,SE,126,1.2,0.0,94,0.00,-RA,FEW,0.15,0.0,WeatherDisplay:10.37,2013-03-01 00:16:00,
2013-02-28 19:21:00,29.3,27.8,29.58,East,92,1.2,1.2,94,0.00,-RA,FEW,0.15,0.0,WeatherDisplay:10.37,2013-03-01 00:21:00,
2013-02-28 19:26:00,29.2,27.7,29.58,ESE,114,1.0,1.0,94,0.00,-RA,FEW,0.15,0.0,WeatherDisplay:10.37,2013-03-01 00:26:00,
2013-02-28 19:31:00,29.1,27.6,29.58,ESE,114,1.2,1.2,94,0.00,-RA,FEW,0.15,0.0,WeatherDisplay:10.37,2013-03-01 00:31:00,
2013-02-28 19:36:00,29.1,27.6,29.58,ESE,118,1.2,0.0,94,0.00,-RA,FEW,0.15,0.0,WeatherDisplay:10.37,2013-03-01 00:36:00,
2013-02-28 19:41:00,29.1,27.6,29.58,East,91,1.2,1.2,94,0.00,-RA,FEW,0.15,0.0,WeatherDisplay:10.37,2013-03-01 00:41:00,
2013-02-28 19:46:00,29.1,27.3,29.58,East,91,1.2,0.0,93,0.00,-RA,FEW,0.15,0.0,WeatherDisplay:10.37,2013-03-01 00:46:00,
2013-02-28 19:51:00,29.1,27.3,29.58,East,91,1.2,1.2,93,0.00,-RA,FEW,0.15,0.0,WeatherDisplay:10.37,2013-03-01 00:51:00,
2013-02-28 19:56:00,29.0,27.2,29.58,East,91,0.0,0.0,93,0.00,-RA,FEW,0.15,0.0,WeatherDisplay:10.37,2013-03-01 00:56:00,
2013-02-28 20:01:00,29.1,27.3,29.58,East,91,0.0,0.0,93,0.00,-RA,FEW,0.15,0.0,WeatherDisplay:10.37,2013-03-01 01:01:00,
2013-02-28 20:06:00,29.1,27.6,29.58,East,91,0.0,0.0,94,0.00,-RA,FEW,0.15,0.0,WeatherDisplay:10.37,2013-03-01 01:06:00,
2013-02-28 20:12:00,29.1,27.6,29.58,East,91,0.0,0.0,94,0.00,-RA,FEW,0.15,0.0,WeatherDisplay:10.37,2013-03-01 01:12:00,
2013-02-28 20:17:00,29.1,27.6,29.58,East,91,0.0,0.0,94,0.00,-RA,FEW,0.15,0.0,WeatherDisplay:10.37,2013-03-01 01:17:00,
2013-02-28 20:22:00,29.1,27.6,29.58,East,91,0.0,0.0,94,0.00,-RA,FEW,0.15,0.0,WeatherDisplay:10.37,2013-03-01 01:22:00,
2013-02-28 20:27:00,29.1,27.6,29.58,East,91,0.0,0.0,94,0.00,-RA,FEW,0.15,0.0,WeatherDisplay:10.37,2013-03-01 01:27:00,
2013-02-28 20:32:00,29.1,27.6,29.58,East,91,0.0,0.0,94,0.00,-RA,FEW,0.15,0.0,WeatherDisplay:10.37,2013-03-01 01:32:00,
2013-02-28 20:37:00,29.1,27.8,29.58,East,91,0.0,0.0,95,0.00,-RA,FEW,0.15,0.0,WeatherDisplay:10.37,2013-03-01 01:37:00,
2013-02-28 20:42:00,29.1,27.8,29.58,East,91,0.0,0.0,95,0.00,-RA,FEW,0.15,0.0,WeatherDisplay:10.37,2013-03-01 01:42:00,
2013-02-28 20:47:00,29.0,27.7,29.58,East,91,0.0,0.0,95,0.00,-RA,FEW,0.15,0.0,WeatherDisplay:10.37,2013-03-01 01:47:00,
2013-02-28 20:52:00,29.0,27.7,29.58,East,91,0.0,0.0,95,0.00,-RA,FEW,0.15,0.0,WeatherDisplay:10.37,2013-03-01 01:52:00,
2013-02-28 20:57:00,29.0,27.7,29.58,East,91,0.0,0.0,95,0.00,-RA,FEW,0.15,0.0,WeatherDisplay:10.37,2013-03-01 01:57:00,
2013-02-28 21:02:00,29.0,27.7,29.58,East,91,0.0,0.0,95,0.00,-SN,FEW,0.15,0.0,WeatherDisplay:10.37,2013-03-01 02:02:00,
2013-02-28 21:07:00,29.0,27.7,29.58,East,91,0.0,0.0,95,0.00,-SN,FEW,0.15,0.0,WeatherDisplay:10.37,2013-03-01 02:07:00,
2013-02-28 21:12:00,28.9,27.6,29.58,East,91,0.0,0.0,95,0.00,-SN,FEW,0.15,0.0,WeatherDisplay:10.37,2013-03-01 02:12:00,
2013-02-28 21:17:00,28.9,27.6,29.58,East,91,0.0,0.0,95,0.00,-SN,FEW,0.15,0.0,WeatherDisplay:10.37,2013-03-01 02:17:00,
2013-02-28 21:22:00,28.9,27.6,29.57,East,91,0.0,0.0,95,0.00,-SN,FEW,0.15,0.0,WeatherDisplay:10.37,2013-03-01 02:22:00,
2013-02-28 21:27:00,28.8,27.5,29.57,East,91,0.0,0.0,95,0.00,-SN,FEW,0.15,0.0,WeatherDisplay:10.37,2013-03-01 02:27:00,
2013-02-28 21:32:00,28.7,27.4,29.57,East,91,0.0,0.0,95,0.00,-SN,FEW,0.15,0.0,WeatherDisplay:10.37,2013-03-01 02:32:00,
2013-02-28 21:37:00,28.7,27.4,29.57,East,91,0.0,0.0,95,0.00,-SN,FEW,0.15,0.0,WeatherDisplay:10.37,2013-03-01 02:37:00,
2013-02-28 21:42:00,28.7,27.4,29.57,East,91,0.0,0.0,95,0.00,-SN,FEW,0.15,0.0,WeatherDisplay:10.37,2013-03-01 02:42:00,
2013-02-28 21:47:00,28.6,27.4,29.57,East,91,0.0,0.0,95,0.00,-SN,FEW,0.15,0.0,WeatherDisplay:10.37,2013-03-01 02:47:00,
2013-02-28 21:52:00,28.5,27.3,29.57,East,91,0.0,0.0,95,0.00,-SN,FEW,0.15,0.0,WeatherDisplay:10.37,2013-03-01 02:52:00,
2013-02-28 21:57:00,28.4,27.2,29.57,East,91,1.2,0.0,95,0.00,-SN,FEW,0.15,0.0,WeatherDisplay:10.37,2013-03-01 02:57:00,
2013-02-28 22:02:00,28.4,27.2,29.57,East,91,1.2,0.0,95,0.00,-SN,FEW,0.15,0.0,WeatherDisplay:10.37,2013-03-01 03:02:00,
2013-02-28 22:07:00,28.3,27.1,29.57,East,91,1.2,0.0,95,0.00,-SN,FEW,0.15,0.0,WeatherDisplay:10.37,2013-03-01 03:07:00,
2013-02-28 22:12:00,28.2,27.0,29.56,East,91,1.2,0.0,95,0.00,-SN,FEW,0.15,0.0,WeatherDisplay:10.37,2013-03-01 03:12:00,
2013-02-28 22:17:00,28.2,27.2,29.56,East,91,0.0,0.0,96,0.00,-SN,FEW,0.15,0.0,WeatherDisplay:10.37,2013-03-01 03:17:00,
2013-02-28 22:22:00,28.1,27.1,29.56,East,91,0.0,0.0,96,0.00,-SN,FEW,0.15,0.0,WeatherDisplay:10.37,2013-03-01 03:22:00,
2013-02-28 22:27:00,28.2,27.2,29.56,East,91,0.0,0.0,96,0.00,-SN,FEW,0.15,0.0,WeatherDisplay:10.37,2013-03-01 03:27:00,
2013-02-28 22:32:00,28.2,27.2,29.56,East,91,0.0,0.0,96,0.00,-SN,FEW,0.15,0.0,WeatherDisplay:10.37,2013-03-01 03:32:00,
2013-02-28 22:37:00,28.2,27.2,29.56,East,91,0.0,0.0,96,0.00,-SN,FEW,0.15,0.0,WeatherDisplay:10.37,2013-03-01 03:37:00,
2013-02-28 22:42:00,28.2,27.2,29.56,East,91,0.0,0.0,96,0.00,-SN,FEW,0.15,0.0,WeatherDisplay:10.37,2013-03-01 03:42:00,
2013-02-28 22:47:00,28.2,27.2,29.56,East,91,0.0,0.0,96,0.00,-SN,FEW,0.15,0.0,WeatherDisplay:10.37,2013-03-01 03:47:00,
2013-02-28 22:52:00,28.1,27.1,29.56,East,91,1.0,1.0,96,0.00,-SN,FEW,0.15,0.0,WeatherDisplay:10.37,2013-03-01 03:52:00,
2013-02-28 22:57:00,28.1,27.1,29.55,East,91,0.0,0.0,96,0.00,-SN,FEW,0.15,0.0,WeatherDisplay:10.37,2013-03-01 03:57:00,
2013-02-28 23:02:00,28.1,27.1,29.55,East,91,0.0,0.0,96,0.00,-SN,FEW,0.15,0.0,WeatherDisplay:10.37,2013-03-01 04:02:00,
2013-02-28 23:08:00,28.1,27.1,29.55,East,91,0.0,0.0,96,0.00,-SN,FEW,0.15,0.0,WeatherDisplay:10.37,2013-03-01 04:08:00,
2013-02-28 23:13:00,28.1,27.1,29.55,East,91,0.0,0.0,96,0.00,-SN,FEW,0.15,0.0,WeatherDisplay:10.37,2013-03-01 04:13:00,
2013-02-28 23:18:00,28.1,26.9,29.55,East,91,0.0,0.0,95,0.00,-SN,FEW,0.15,0.0,WeatherDisplay:10.37,2013-03-01 04:18:00,
2013-02-28 23:23:00,28.0,26.8,29.55,East,91,0.0,0.0,95,0.00,-SN,FEW,0.15,0.0,WeatherDisplay:10.37,2013-03-01 04:23:00,
2013-02-28 23:28:00,27.9,26.7,29.55,East,91,0.0,0.0,95,0.00,-SN,FEW,0.15,0.0,WeatherDisplay:10.37,2013-03-01 04:28:00,
2013-02-28 23:33:00,27.8,26.6,29.55,East,91,0.0,0.0,95,0.00,-SN,FEW,0.15,0.0,WeatherDisplay:10.37,2013-03-01 04:33:00,
2013-02-28 23:38:00,27.7,26.5,29.55,East,91,0.0,0.0,95,0.00,-SN,FEW,0.15,0.0,WeatherDisplay:10.37,2013-03-01 04:38:00,
2013-02-28 23:43:00,27.5,26.3,29.55,East,91,0.0,0.0,95,0.00,-SN,FEW,0.15,0.0,WeatherDisplay:10.37,2013-03-01 04:43:00,
2013-02-28 23:48:00,27.5,26.3,29.55,East,91,0.0,0.0,95,0.00,-SN,FEW,0.15,0.0,WeatherDisplay:10.37,2013-03-01 04:48:00,
2013-02-28 23:53:00,27.4,26.2,29.55,East,91,0.0,0.0,95,0.00,-SN,FEW,0.15,0.0,WeatherDisplay:10.37,2013-03-01 04:53:00,
2013-02-28 23:58:00,27.3,26.1,29.55,East,91,0.0,0.0,95,0.00,-SN,FEW,0.15,0.0,WeatherDisplay:10.37,2013-03-01 04:58:00,